sensor_id;sensor_type;location;lat;lon;timestamp;pressure;altitude;pressure_sealevel;temperature;humidity
68366;BME280;55283;51.466;5.478;2022-09-09T00:04:41;100621.47;;;26.77;34.64
68366;BME280;55283;51.466;5.478;2022-09-09T00:07:41;100614.44;;;26.73;34.74
68366;BME280;55283;51.466;5.478;2022-09-09T00:10:28;100609.47;;;26.68;35.10
68366;BME280;55283;51.466;5.478;2022-09-09T00:15:32;100610.56;;;26.70;34.97
68366;BME280;55283;51.466;5.478;2022-09-09T00:20:52;100604.34;;;26.66;35.12
68366;BME280;55283;51.466;5.478;2022-09-09T00:23:35;100609.00;;;26.69;34.92
68366;BME280;55283;51.466;5.478;2022-09-09T00:26:14;100600.53;;;26.69;35.11
68366;BME280;55283;51.466;5.478;2022-09-09T00:31:31;100604.41;;;26.72;34.97
68366;BME280;55283;51.466;5.478;2022-09-09T00:34:03;100602.38;;;26.72;34.96
68366;BME280;55283;51.466;5.478;2022-09-09T00:36:32;100595.16;;;26.71;35.01
68366;BME280;55283;51.466;5.478;2022-09-09T00:39:00;100583.25;;;26.67;34.80
68366;BME280;55283;51.466;5.478;2022-09-09T00:46:50;100590.28;;;26.72;34.87
68366;BME280;55283;51.466;5.478;2022-09-09T00:49:36;100583.84;;;26.71;34.76
68366;BME280;55283;51.466;5.478;2022-09-09T00:55:00;100585.41;;;26.72;35.03
68366;BME280;55283;51.466;5.478;2022-09-09T00:57:33;100583.06;;;26.71;34.86
68366;BME280;55283;51.466;5.478;2022-09-09T01:00:29;100592.81;;;26.70;34.77
68366;BME280;55283;51.466;5.478;2022-09-09T01:13:47;100584.84;;;26.68;34.94
68366;BME280;55283;51.466;5.478;2022-09-09T01:16:17;100584.84;;;26.68;35.10
68366;BME280;55283;51.466;5.478;2022-09-09T01:18:49;100588.91;;;26.67;34.96
68366;BME280;55283;51.466;5.478;2022-09-09T01:21:44;100577.59;;;26.67;35.00
68366;BME280;55283;51.466;5.478;2022-09-09T01:24:34;100580.16;;;26.65;35.03
68366;BME280;55283;51.466;5.478;2022-09-09T01:27:03;100580.72;;;26.69;35.06
68366;BME280;55283;51.466;5.478;2022-09-09T01:29:30;100556.38;;;26.57;35.20
68366;BME280;55283;51.466;5.478;2022-09-09T01:34:23;100569.41;;;26.69;34.57
68366;BME280;55283;51.466;5.478;2022-09-09T01:36:58;100564.75;;;26.66;34.92
68366;BME280;55283;51.466;5.478;2022-09-09T01:39:24;100565.81;;;26.69;35.02
68366;BME280;55283;51.466;5.478;2022-09-09T01:41:51;100567.88;;;26.68;34.87
68366;BME280;55283;51.466;5.478;2022-09-09T01:44:20;100559.41;;;26.68;35.04
68366;BME280;55283;51.466;5.478;2022-09-09T01:46:46;100560.66;;;26.67;34.77
68366;BME280;55283;51.466;5.478;2022-09-09T01:49:11;100555.19;;;26.63;35.10
68366;BME280;55283;51.466;5.478;2022-09-09T01:51:38;100565.22;;;26.64;34.95
68366;BME280;55283;51.466;5.478;2022-09-09T01:54:06;100563.22;;;26.65;35.01
68366;BME280;55283;51.466;5.478;2022-09-09T01:57:06;100561.63;;;26.64;34.67
68366;BME280;55283;51.466;5.478;2022-09-09T02:00:01;100549.25;;;26.61;34.92
68366;BME280;55283;51.466;5.478;2022-09-09T02:02:33;100551.59;;;26.63;35.09
68366;BME280;55283;51.466;5.478;2022-09-09T02:07:48;100541.06;;;26.63;35.04
68366;BME280;55283;51.466;5.478;2022-09-09T02:10:21;100539.78;;;26.64;34.94
68366;BME280;55283;51.466;5.478;2022-09-09T02:12:54;100542.63;;;26.64;34.91
68366;BME280;55283;51.466;5.478;2022-09-09T02:15:45;100544.38;;;26.62;34.92
68366;BME280;55283;51.466;5.478;2022-09-09T02:18:15;100544.97;;;26.66;35.00
68366;BME280;55283;51.466;5.478;2022-09-09T02:20:45;100549.84;;;26.66;35.05
68366;BME280;55283;51.466;5.478;2022-09-09T02:23:12;100547.78;;;26.66;34.94
68366;BME280;55283;51.466;5.478;2022-09-09T02:25:40;100545.44;;;26.64;34.85
68366;BME280;55283;51.466;5.478;2022-09-09T02:28:07;100528.09;;;26.57;35.09
68366;BME280;55283;51.466;5.478;2022-09-09T02:30:37;100548.56;;;26.67;34.87
68366;BME280;55283;51.466;5.478;2022-09-09T02:33:04;100526.16;;;26.63;35.06
68366;BME280;55283;51.466;5.478;2022-09-09T02:35:32;100542.13;;;26.66;34.86
68366;BME280;55283;51.466;5.478;2022-09-09T02:38:06;100528.47;;;26.64;35.24
68366;BME280;55283;51.466;5.478;2022-09-09T02:40:32;100543.41;;;26.65;35.37
68366;BME280;55283;51.466;5.478;2022-09-09T02:42:58;100534.94;;;26.65;34.94
68366;BME280;55283;51.466;5.478;2022-09-09T02:45:29;100526.16;;;26.63;35.14
68366;BME280;55283;51.466;5.478;2022-09-09T02:53:37;100537.94;;;26.61;35.21
68366;BME280;55283;51.466;5.478;2022-09-09T02:56:17;100535.41;;;26.63;34.91
68366;BME280;55283;51.466;5.478;2022-09-09T02:58:45;100539.53;;;26.62;34.80
68366;BME280;55283;51.466;5.478;2022-09-09T03:01:11;100534.81;;;26.59;35.05
68366;BME280;55283;51.466;5.478;2022-09-09T03:03:37;100538.72;;;26.62;35.14
68366;BME280;55283;51.466;5.478;2022-09-09T03:06:03;100539.97;;;26.61;34.93
68366;BME280;55283;51.466;5.478;2022-09-09T03:08:30;100539.00;;;26.64;35.04
68366;BME280;55283;51.466;5.478;2022-09-09T03:10:58;100541.38;;;26.66;34.95
68366;BME280;55283;51.466;5.478;2022-09-09T03:13:26;100538.44;;;26.60;34.96
68366;BME280;55283;51.466;5.478;2022-09-09T03:15:51;100524.28;;;26.60;35.03
68366;BME280;55283;51.466;5.478;2022-09-09T03:18:17;100540.28;;;26.63;34.87
68366;BME280;55283;51.466;5.478;2022-09-09T03:20:42;100551.91;;;26.65;35.07
68366;BME280;55283;51.466;5.478;2022-09-09T03:23:08;100544.84;;;26.60;34.86
68366;BME280;55283;51.466;5.478;2022-09-09T03:25:34;100555.88;;;26.58;34.91
68366;BME280;55283;51.466;5.478;2022-09-09T03:28:01;100547.38;;;26.58;35.11
68366;BME280;55283;51.466;5.478;2022-09-09T03:30:27;100556.94;;;26.61;35.25
68366;BME280;55283;51.466;5.478;2022-09-09T03:32:53;100560.84;;;26.63;35.01
68366;BME280;55283;51.466;5.478;2022-09-09T03:35:19;100552.84;;;26.62;34.83
68366;BME280;55283;51.466;5.478;2022-09-09T03:37:45;100540.97;;;26.58;34.83
68366;BME280;55283;51.466;5.478;2022-09-09T03:40:11;100549.56;;;26.63;35.20
68366;BME280;55283;51.466;5.478;2022-09-09T03:42:37;100549.25;;;26.61;35.00
68366;BME280;55283;51.466;5.478;2022-09-09T03:45:08;100546.44;;;26.61;35.13
68366;BME280;55283;51.466;5.478;2022-09-09T03:47:34;100540.19;;;26.57;34.96
68366;BME280;55283;51.466;5.478;2022-09-09T03:50:00;100549.72;;;26.60;35.04
68366;BME280;55283;51.466;5.478;2022-09-09T03:52:25;100552.84;;;26.62;34.73
68366;BME280;55283;51.466;5.478;2022-09-09T03:54:52;100545.63;;;26.61;35.17
68366;BME280;55283;51.466;5.478;2022-09-09T03:57:18;100545.63;;;26.61;35.05
68366;BME280;55283;51.466;5.478;2022-09-09T03:59:43;100538.63;;;26.56;35.24
68366;BME280;55283;51.466;5.478;2022-09-09T04:02:09;100540.78;;;26.61;35.26
68366;BME280;55283;51.466;5.478;2022-09-09T04:04:34;100542.50;;;26.59;35.22
68366;BME280;55283;51.466;5.478;2022-09-09T04:07:00;100544.09;;;26.60;34.85
68366;BME280;55283;51.466;5.478;2022-09-09T04:09:25;100542.03;;;26.60;35.20
68366;BME280;55283;51.466;5.478;2022-09-09T04:11:51;100544.09;;;26.60;34.87
68366;BME280;55283;51.466;5.478;2022-09-09T04:14:18;100542.78;;;26.61;35.16
68366;BME280;55283;51.466;5.478;2022-09-09T04:16:43;100544.38;;;26.62;34.85
68366;BME280;55283;51.466;5.478;2022-09-09T04:19:11;100535.13;;;26.61;34.98
68366;BME280;55283;51.466;5.478;2022-09-09T04:21:39;100534.31;;;26.61;35.20
68366;BME280;55283;51.466;5.478;2022-09-09T04:24:06;100532.78;;;26.60;34.90
68366;BME280;55283;51.466;5.478;2022-09-09T04:26:33;100536.38;;;26.60;34.98
68366;BME280;55283;51.466;5.478;2022-09-09T04:28:58;100537.66;;;26.59;35.08
68366;BME280;55283;51.466;5.478;2022-09-09T04:31:24;100529.94;;;26.60;35.03
68366;BME280;55283;51.466;5.478;2022-09-09T04:33:50;100522.72;;;26.59;34.83
68366;BME280;55283;51.466;5.478;2022-09-09T04:36:16;100529.47;;;26.61;35.31
68366;BME280;55283;51.466;5.478;2022-09-09T04:38:42;100518.34;;;26.58;35.28
68366;BME280;55283;51.466;5.478;2022-09-09T04:41:09;100526.81;;;26.58;35.32
68366;BME280;55283;51.466;5.478;2022-09-09T04:43:36;100512.69;;;26.58;35.03
68366;BME280;55283;51.466;5.478;2022-09-09T04:46:02;100518.34;;;26.58;35.02
68366;BME280;55283;51.466;5.478;2022-09-09T04:48:28;100516.81;;;26.57;35.05
68366;BME280;55283;51.466;5.478;2022-09-09T04:50:59;100503.56;;;26.48;34.89
68366;BME280;55283;51.466;5.478;2022-09-09T04:53:25;100511.91;;;26.57;35.08
68366;BME280;55283;51.466;5.478;2022-09-09T04:55:52;100519.88;;;26.59;35.04
68366;BME280;55283;51.466;5.478;2022-09-09T04:58:17;100514.25;;;26.59;35.16
68366;BME280;55283;51.466;5.478;2022-09-09T05:00:43;100516.59;;;26.60;34.99
68366;BME280;55283;51.466;5.478;2022-09-09T05:03:08;100509.38;;;26.59;35.19
68366;BME280;55283;51.466;5.478;2022-09-09T05:05:34;100507.03;;;26.58;35.06
68366;BME280;55283;51.466;5.478;2022-09-09T05:08:05;100505.72;;;26.53;34.84
68366;BME280;55283;51.466;5.478;2022-09-09T05:10:32;100512.22;;;26.59;35.27
68366;BME280;55283;51.466;5.478;2022-09-09T05:12:57;100512.41;;;26.56;35.04
68366;BME280;55283;51.466;5.478;2022-09-09T05:15:23;100506.75;;;26.56;35.15
68366;BME280;55283;51.466;5.478;2022-09-09T05:17:48;100518.34;;;26.58;35.15
68366;BME280;55283;51.466;5.478;2022-09-09T05:20:14;100512.69;;;26.58;35.23
68366;BME280;55283;51.466;5.478;2022-09-09T05:22:39;100516.81;;;26.57;35.09
68366;BME280;55283;51.466;5.478;2022-09-09T05:25:06;100515.22;;;26.56;35.22
68366;BME280;55283;51.466;5.478;2022-09-09T05:27:33;100503.91;;;26.56;35.28
68366;BME280;55283;51.466;5.478;2022-09-09T05:29:59;100514.75;;;26.57;35.05
68366;BME280;55283;51.466;5.478;2022-09-09T05:32:24;100504.63;;;26.51;35.63
68366;BME280;55283;51.466;5.478;2022-09-09T05:34:50;100511.84;;;26.52;35.07
68366;BME280;55283;51.466;5.478;2022-09-09T05:37:16;100505.88;;;26.50;35.30
68366;BME280;55283;51.466;5.478;2022-09-09T05:39:42;100508.03;;;26.55;35.06
68366;BME280;55283;51.466;5.478;2022-09-09T05:42:07;100509.88;;;26.58;35.26
68366;BME280;55283;51.466;5.478;2022-09-09T05:44:32;100515.63;;;26.63;35.20
68366;BME280;55283;51.466;5.478;2022-09-09T05:46:58;100515.72;;;26.69;34.89
68366;BME280;55283;51.466;5.478;2022-09-09T05:49:23;100501.50;;;26.63;35.07
68366;BME280;55283;51.466;5.478;2022-09-09T05:51:49;100504.31;;;26.63;34.92
68366;BME280;55283;51.466;5.478;2022-09-09T05:54:15;100517.06;;;26.59;35.83
68366;BME280;55283;51.466;5.478;2022-09-09T05:56:41;100516.28;;;26.58;35.57
68366;BME280;55283;51.466;5.478;2022-09-09T05:59:07;100525.66;;;26.64;35.34
68366;BME280;55283;51.466;5.478;2022-09-09T06:01:34;100526.50;;;26.71;35.35
68366;BME280;55283;51.466;5.478;2022-09-09T06:04:00;100521.84;;;26.68;35.41
68366;BME280;55283;51.466;5.478;2022-09-09T06:06:33;100526.47;;;26.65;35.60
68366;BME280;55283;51.466;5.478;2022-09-09T06:09:02;100533.25;;;26.58;35.97
68366;BME280;55283;51.466;5.478;2022-09-09T06:11:30;100527.41;;;26.62;36.78
68366;BME280;55283;51.466;5.478;2022-09-09T06:13:58;100527.41;;;26.62;36.43
68366;BME280;55283;51.466;5.478;2022-09-09T06:16:26;100522.44;;;26.57;36.68
68366;BME280;55283;51.466;5.478;2022-09-09T06:18:53;100526.16;;;26.63;36.53
68366;BME280;55283;51.466;5.478;2022-09-09T06:23:47;100520.28;;;26.31;36.37
68366;BME280;55283;51.466;5.478;2022-09-09T06:26:17;100523.22;;;26.22;36.41
68366;BME280;55283;51.466;5.478;2022-09-09T06:28:43;100521.56;;;26.15;36.48
68366;BME280;55283;51.466;5.478;2022-09-09T06:31:11;100529.47;;;26.11;36.31
68366;BME280;55283;51.466;5.478;2022-09-09T06:33:40;100538.91;;;26.08;36.61
68366;BME280;55283;51.466;5.478;2022-09-09T06:36:15;100518.38;;;26.08;36.57
68366;BME280;55283;51.466;5.478;2022-09-09T06:38:44;100523.72;;;26.06;36.52
68366;BME280;55283;51.466;5.478;2022-09-09T06:41:11;100521.59;;;26.01;36.29
68366;BME280;55283;51.466;5.478;2022-09-09T06:43:37;100537.16;;;25.96;36.65
68366;BME280;55283;51.466;5.478;2022-09-09T06:46:09;100512.91;;;25.89;36.43
68366;BME280;55283;51.466;5.478;2022-09-09T06:48:35;100530.81;;;25.86;36.40
68366;BME280;55283;51.466;5.478;2022-09-09T06:51:09;100519.34;;;25.90;36.41
68366;BME280;55283;51.466;5.478;2022-09-09T06:53:37;100523.50;;;25.80;36.58
68366;BME280;55283;51.466;5.478;2022-09-09T06:56:27;100515.53;;;25.78;36.58
68366;BME280;55283;51.466;5.478;2022-09-09T06:58:55;100521.38;;;25.74;36.53
68366;BME280;55283;51.466;5.478;2022-09-09T07:01:23;100515.03;;;25.65;36.54
68366;BME280;55283;51.466;5.478;2022-09-09T07:03:51;100519.72;;;25.68;36.47
68366;BME280;55283;51.466;5.478;2022-09-09T07:06:22;100517.56;;;25.63;36.33
68366;BME280;55283;51.466;5.478;2022-09-09T07:08:53;100520.03;;;25.70;36.65
68366;BME280;55283;51.466;5.478;2022-09-09T07:11:21;100526.34;;;25.65;36.55
68366;BME280;55283;51.466;5.478;2022-09-09T07:13:47;100526.25;;;25.74;36.73
68366;BME280;55283;51.466;5.478;2022-09-09T07:16:16;100519.81;;;25.73;36.36
68366;BME280;55283;51.466;5.478;2022-09-09T07:18:42;100526.25;;;25.74;36.51
68366;BME280;55283;51.466;5.478;2022-09-09T07:21:13;100530.81;;;25.71;36.44
68366;BME280;55283;51.466;5.478;2022-09-09T07:23:39;100538.31;;;25.74;36.48
68366;BME280;55283;51.466;5.478;2022-09-09T07:26:19;100527.63;;;25.79;36.06
68366;BME280;55283;51.466;5.478;2022-09-09T07:28:45;100521.88;;;25.73;36.35
68366;BME280;55283;51.466;5.478;2022-09-09T07:31:16;100511.06;;;25.71;36.46
68366;BME280;55283;51.466;5.478;2022-09-09T07:33:43;100507.19;;;25.69;36.18
68366;BME280;55283;51.466;5.478;2022-09-09T07:36:14;100512.91;;;25.74;36.19
68366;BME280;55283;51.466;5.478;2022-09-09T07:38:45;100514.16;;;25.73;35.89
68366;BME280;55283;51.466;5.478;2022-09-09T07:41:15;100535.00;;;25.76;35.94
68366;BME280;55283;51.466;5.478;2022-09-09T07:43:42;100532.09;;;25.70;35.99
68366;BME280;55283;51.466;5.478;2022-09-09T07:46:10;100518.06;;;25.76;36.09
68366;BME280;55283;51.466;5.478;2022-09-09T07:48:35;100536.75;;;25.88;36.16
68366;BME280;55283;51.466;5.478;2022-09-09T07:51:15;100524.56;;;25.97;35.76
68366;BME280;55283;51.466;5.478;2022-09-09T07:53:46;100521.66;;;26.06;35.85
68366;BME280;55283;51.466;5.478;2022-09-09T07:56:14;100518.38;;;26.08;35.48
68366;BME280;55283;51.466;5.478;2022-09-09T07:58:42;100520.78;;;26.15;35.41
68366;BME280;55283;51.466;5.478;2022-09-09T08:01:14;100528.56;;;26.20;35.58
68366;BME280;55283;51.466;5.478;2022-09-09T08:03:40;100520.78;;;26.15;35.14
68366;BME280;55283;51.466;5.478;2022-09-09T08:06:08;100521.38;;;26.19;35.42
68366;BME280;55283;51.466;5.478;2022-09-09T08:08:34;100528.38;;;26.24;35.23
68366;BME280;55283;51.466;5.478;2022-09-09T08:11:03;100535.88;;;26.27;35.30
68366;BME280;55283;51.466;5.478;2022-09-09T08:13:28;100538.69;;;26.27;35.13
68366;BME280;55283;51.466;5.478;2022-09-09T08:16:07;100537.44;;;26.28;35.14
68366;BME280;55283;51.466;5.478;2022-09-09T08:18:32;100521.16;;;26.23;35.26
68366;BME280;55283;51.466;5.478;2022-09-09T08:21:04;100523.44;;;26.18;35.25
68366;BME280;55283;51.466;5.478;2022-09-09T08:23:30;100526.06;;;26.07;35.36
68366;BME280;55283;51.466;5.478;2022-09-09T08:26:03;100523.59;;;25.41;36.18
68366;BME280;55283;51.466;5.478;2022-09-09T08:28:29;100526.69;;;25.04;36.95
68366;BME280;55283;51.466;5.478;2022-09-09T08:30:56;100520.94;;;24.41;37.95
68366;BME280;55283;51.466;5.478;2022-09-09T08:33:21;100528.72;;;24.46;37.99
68366;BME280;55283;51.466;5.478;2022-09-09T08:35:50;100532.81;;;24.45;38.13
68366;BME280;55283;51.466;5.478;2022-09-09T08:38:16;100531.59;;;24.37;38.29
68366;BME280;55283;51.466;5.478;2022-09-09T08:40:44;100530.03;;;24.36;38.21
68366;BME280;55283;51.466;5.478;2022-09-09T08:43:14;100525.38;;;24.33;38.10
68366;BME280;55283;51.466;5.478;2022-09-09T08:46:13;100534.13;;;23.74;39.24
68366;BME280;55283;51.466;5.478;2022-09-09T08:48:56;100530.09;;;24.17;38.53
68366;BME280;55283;51.466;5.478;2022-09-09T08:51:25;100534.56;;;23.82;39.04
68366;BME280;55283;51.466;5.478;2022-09-09T08:53:54;100542.69;;;23.80;39.24
68366;BME280;55283;51.466;5.478;2022-09-09T08:56:24;100533.03;;;23.71;39.48
68366;BME280;55283;51.466;5.478;2022-09-09T08:58:55;100536.63;;;23.54;39.65
68366;BME280;55283;51.466;5.478;2022-09-09T09:04:12;100541.06;;;23.36;40.03
68366;BME280;55283;51.466;5.478;2022-09-09T09:07:00;100567.38;;;23.02;40.63
68366;BME280;55283;51.466;5.478;2022-09-09T09:09:46;100568.78;;;22.97;40.63
68366;BME280;55283;51.466;5.478;2022-09-09T09:12:18;100582.06;;;23.06;41.19
68366;BME280;55283;51.466;5.478;2022-09-09T09:14:46;100558.81;;;23.33;40.30
68366;BME280;55283;51.466;5.478;2022-09-09T09:17:14;100559.31;;;23.50;40.12
68366;BME280;55283;51.466;5.478;2022-09-09T09:19:42;100572.09;;;23.23;40.18
68366;BME280;55283;51.466;5.478;2022-09-09T09:22:29;100559.81;;;23.39;39.94
68366;BME280;55283;51.466;5.478;2022-09-09T09:30:00;100571.81;;;23.49;40.44
68366;BME280;55283;51.466;5.478;2022-09-09T09:32:30;100579.84;;;23.01;41.26
68366;BME280;55283;51.466;5.478;2022-09-09T09:34:57;100565.78;;;22.92;41.25
68366;BME280;55283;51.466;5.478;2022-09-09T09:37:29;100571.13;;;22.99;41.04
68366;BME280;55283;51.466;5.478;2022-09-09T09:39:55;100562.06;;;22.95;41.13
68366;BME280;55283;51.466;5.478;2022-09-09T09:42:20;100560.66;;;22.90;41.11
68366;BME280;55283;51.466;5.478;2022-09-09T09:44:46;100554.13;;;23.12;40.58
68366;BME280;55283;51.466;5.478;2022-09-09T09:47:17;100565.53;;;23.26;40.61
68366;BME280;55283;51.466;5.478;2022-09-09T09:52:23;100533.00;;;22.98;40.42
68366;BME280;55283;51.466;5.478;2022-09-09T09:54:49;100560.50;;;23.03;40.75
68366;BME280;55283;51.466;5.478;2022-09-09T09:57:16;100570.38;;;22.58;41.96
68366;BME280;55283;51.466;5.478;2022-09-09T09:59:43;100564.09;;;22.54;42.53
68366;BME280;55283;51.466;5.478;2022-09-09T10:02:24;100571.22;;;22.36;42.97
68366;BME280;55283;51.466;5.478;2022-09-09T10:05:20;100567.09;;;22.28;43.46
68366;BME280;55283;51.466;5.478;2022-09-09T10:07:59;100574.13;;;22.55;43.11
68366;BME280;55283;51.466;5.478;2022-09-09T10:10:34;100564.31;;;22.28;43.70
68366;BME280;55283;51.466;5.478;2022-09-09T10:13:16;100563.47;;;22.50;43.04
68366;BME280;55283;51.466;5.478;2022-09-09T10:16:07;100573.53;;;22.69;43.07
68366;BME280;55283;51.466;5.478;2022-09-09T10:18:44;100590.28;;;22.73;43.28
68366;BME280;55283;51.466;5.478;2022-09-09T10:24:07;100580.34;;;22.59;44.01
68366;BME280;55283;51.466;5.478;2022-09-09T10:35:27;100599.25;;;22.58;44.62
68366;BME280;55283;51.466;5.478;2022-09-09T10:40:39;100581.47;;;23.11;42.94
68366;BME280;55283;51.466;5.478;2022-09-09T10:46:23;100590.56;;;23.61;42.71
68366;BME280;55283;51.466;5.478;2022-09-09T10:54:41;100576.44;;;23.98;41.24
68366;BME280;55283;51.466;5.478;2022-09-09T10:56:51;100577.84;;;24.12;41.22
68366;BME280;55283;51.466;5.478;2022-09-09T10:59:24;100591.41;;;24.23;40.83
68366;BME280;55283;51.466;5.478;2022-09-09T11:02:00;100586.56;;;24.32;40.88
68366;BME280;55283;51.466;5.478;2022-09-09T11:04:32;100573.25;;;24.33;40.44
68366;BME280;55283;51.466;5.478;2022-09-09T11:07:02;100581.16;;;24.44;40.62
68366;BME280;55283;51.466;5.478;2022-09-09T11:09:33;100575.22;;;24.51;40.18
68366;BME280;55283;51.466;5.478;2022-09-09T11:12:02;100578.47;;;24.58;40.18
68366;BME280;55283;51.466;5.478;2022-09-09T11:14:36;100574.97;;;24.63;40.08
68366;BME280;55283;51.466;5.478;2022-09-09T11:17:31;100574.81;;;24.67;40.03
68366;BME280;55283;51.466;5.478;2022-09-09T11:19:58;100579.03;;;24.72;39.96
68366;BME280;55283;51.466;5.478;2022-09-09T11:22:39;100577.13;;;24.78;39.77
68366;BME280;55283;51.466;5.478;2022-09-09T11:25:41;100574.63;;;24.80;39.54
68366;BME280;55283;51.466;5.478;2022-09-09T11:41:53;100569.03;;;24.95;39.62
68366;BME280;55283;51.466;5.478;2022-09-09T11:44:29;100557.94;;;24.91;39.39
68366;BME280;55283;51.466;5.478;2022-09-09T11:46:55;100572.94;;;24.97;39.52
68366;BME280;55283;51.466;5.478;2022-09-09T11:49:40;100581.22;;;25.01;39.26
68366;BME280;55283;51.466;5.478;2022-09-09T11:52:25;100572.63;;;24.95;39.45
68366;BME280;55283;51.466;5.478;2022-09-09T11:55:19;100590.28;;;25.05;39.33
68366;BME280;55283;51.466;5.478;2022-09-09T11:57:57;100578.06;;;25.08;39.21
68366;BME280;55283;51.466;5.478;2022-09-09T12:03:03;100571.91;;;25.10;38.99
68366;BME280;55283;51.466;5.478;2022-09-09T12:05:37;100564.41;;;25.06;39.26
68366;BME280;55283;51.466;5.478;2022-09-09T12:08:04;100569.41;;;25.12;39.35
68366;BME280;55283;51.466;5.478;2022-09-09T12:10:33;100567.53;;;25.09;39.13
68366;BME280;55283;51.466;5.478;2022-09-09T12:13:16;100567.94;;;25.16;38.85
68366;BME280;55283;51.466;5.478;2022-09-09T12:15:50;100567.47;;;25.18;39.07
68366;BME280;55283;51.466;5.478;2022-09-09T12:18:23;100561.94;;;25.23;38.93
68366;BME280;55283;51.466;5.478;2022-09-09T12:21:04;100572.47;;;25.23;38.88
68366;BME280;55283;51.466;5.478;2022-09-09T12:23:40;100571.00;;;25.27;38.82
68366;BME280;55283;51.466;5.478;2022-09-09T12:26:16;100559.44;;;25.25;38.64
68366;BME280;55283;51.466;5.478;2022-09-09T12:28:55;100541.78;;;25.16;38.84
68366;BME280;55283;51.466;5.478;2022-09-09T12:31:46;100553.41;;;25.33;38.61
68366;BME280;55283;51.466;5.478;2022-09-09T12:34:23;100568.47;;;25.29;38.67
68366;BME280;55283;51.466;5.478;2022-09-09T12:36:56;100562.97;;;25.35;38.62
68366;BME280;55283;51.466;5.478;2022-09-09T12:39:32;100556.53;;;25.35;38.32
68366;BME280;55283;51.466;5.478;2022-09-09T12:41:59;100547.28;;;25.34;38.39
68366;BME280;55283;51.466;5.478;2022-09-09T12:44:26;100546.38;;;25.37;38.44
68366;BME280;55283;51.466;5.478;2022-09-09T12:46:53;100553.56;;;25.38;38.26
68366;BME280;55283;51.466;5.478;2022-09-09T12:49:35;100550.72;;;25.38;38.30
68366;BME280;55283;51.466;5.478;2022-09-09T12:52:18;100523.81;;;25.28;38.26
68366;BME280;55283;51.466;5.478;2022-09-09T12:54:47;100546.16;;;25.41;38.17
68366;BME280;55283;51.466;5.478;2022-09-09T12:57:14;100540.53;;;25.41;38.22
68366;BME280;55283;51.466;5.478;2022-09-09T12:59:42;100530.78;;;25.42;38.14
68366;BME280;55283;51.466;5.478;2022-09-09T13:02:22;100524.66;;;25.43;38.07
68366;BME280;55283;51.466;5.478;2022-09-09T13:04:48;100521.25;;;25.39;38.18
68366;BME280;55283;51.466;5.478;2022-09-09T13:07:15;100535.66;;;25.41;38.29
68366;BME280;55283;51.466;5.478;2022-09-09T13:09:41;100530.31;;;25.43;38.27
68366;BME280;55283;51.466;5.478;2022-09-09T13:12:13;100498.16;;;25.26;38.11
68366;BME280;55283;51.466;5.478;2022-09-09T13:14:43;100521.66;;;25.47;38.18
68366;BME280;55283;51.466;5.478;2022-09-09T13:17:38;100527.78;;;25.45;38.21
68366;BME280;55283;51.466;5.478;2022-09-09T13:20:04;100527.09;;;25.50;38.02
68366;BME280;55283;51.466;5.478;2022-09-09T13:22:34;100507.25;;;25.45;38.00
68366;BME280;55283;51.466;5.478;2022-09-09T13:27:34;100519.41;;;25.51;37.62
68366;BME280;55283;51.466;5.478;2022-09-09T13:30:29;100491.81;;;25.31;37.68
68366;BME280;55283;51.466;5.478;2022-09-09T13:35:35;100528.75;;;25.42;37.82
68366;BME280;55283;51.466;5.478;2022-09-09T13:38:14;100531.97;;;25.50;37.67
68366;BME280;55283;51.466;5.478;2022-09-09T13:40:39;100529.03;;;25.44;37.61
68366;BME280;55283;51.466;5.478;2022-09-09T13:43:15;100530.31;;;25.43;37.87
68366;BME280;55283;51.466;5.478;2022-09-09T13:45:53;100520.38;;;25.48;37.80
68366;BME280;55283;51.466;5.478;2022-09-09T13:48:19;100531.56;;;25.57;37.90
68366;BME280;55283;51.466;5.478;2022-09-09T13:50:54;100510.06;;;25.45;37.85
68366;BME280;55283;51.466;5.478;2022-09-09T13:53:19;100538.59;;;25.62;37.98
68366;BME280;55283;51.466;5.478;2022-09-09T13:55:44;100505.13;;;25.55;37.83
68366;BME280;55283;51.466;5.478;2022-09-09T13:58:15;100520.03;;;25.70;37.74
68366;BME280;55283;51.466;5.478;2022-09-09T14:00:42;100495.28;;;25.50;38.19
68366;BME280;55283;51.466;5.478;2022-09-09T14:03:09;100500.94;;;25.65;38.02
68366;BME280;55283;51.466;5.478;2022-09-09T14:05:35;100515.03;;;25.65;38.62
68366;BME280;55283;51.466;5.478;2022-09-09T14:08:03;100525.66;;;25.70;37.88
68366;BME280;55283;51.466;5.478;2022-09-09T14:10:29;100520.50;;;25.68;38.63
68366;BME280;55283;51.466;5.478;2022-09-09T14:12:55;100518.63;;;25.65;38.43
68366;BME280;55283;51.466;5.478;2022-09-09T14:15:21;100519.03;;;25.73;38.17
68366;BME280;55283;51.466;5.478;2022-09-09T14:17:47;100512.44;;;25.76;37.84
68366;BME280;55283;51.466;5.478;2022-09-09T14:20:14;100518.38;;;25.78;37.97
68366;BME280;55283;51.466;5.478;2022-09-09T14:22:41;100517.56;;;25.78;38.16
68366;BME280;55283;51.466;5.478;2022-09-09T14:25:07;100527.41;;;25.82;37.94
68366;BME280;55283;51.466;5.478;2022-09-09T14:27:32;100518.06;;;25.76;38.33
68366;BME280;55283;51.466;5.478;2022-09-09T14:29:58;100514.28;;;25.79;38.06
68366;BME280;55283;51.466;5.478;2022-09-09T14:32:26;100517.41;;;25.81;38.27
68366;BME280;55283;51.466;5.478;2022-09-09T14:34:51;100517.41;;;25.81;38.33
68366;BME280;55283;51.466;5.478;2022-09-09T14:37:17;100508.16;;;25.81;38.03
68366;BME280;55283;51.466;5.478;2022-09-09T14:39:43;100510.78;;;25.84;38.13
68366;BME280;55283;51.466;5.478;2022-09-09T14:42:13;100509.50;;;25.85;38.15
68366;BME280;55283;51.466;5.478;2022-09-09T14:44:39;100506.47;;;25.89;38.11
68366;BME280;55283;51.466;5.478;2022-09-09T14:47:05;100508.72;;;25.85;38.34